KHPT/HPT METAR and TAF weather

Enter ICAO airport designator
Station Type Date Time Source
KHPT METAR 2020/01/23 18:15 UTC NOAA

KHPT 231815Z AUTO 08005KT 4SM BR OVC004 00/00 A2994 RMK AO2


Station Type Date Time Source
KHPT Decoded METAR 2020/01/23 18:15 UTC NOAA

Station name not available
Jan 23, 2020 - 01:15 PM EST / 2020.01.23 1815 UTC
Wind: from the E (080 degrees) at 6 MPH (5 KT):0
Visibility: 4 mile(s):0
Sky conditions: overcast
Weather: mist
Temperature: 32 F (0 C)
Windchill: 26 F (-3 C):1
Dew Point: 32 F (0 C)
Relative Humidity: 100%
Pressure (altimeter): 29.94 in. Hg (1013 hPa)
ob: KHPT 231815Z AUTO 08005KT 4SM BR OVC004 00/00 A2994 RMK AO2
cycle: 18

Station Type Date Time Source
KHPT TAF UTC NOAA

Error!

Example: see airport list